斑竹:听风岁月
 标题 作者 点击 回复 回复时间
五菱宏光PLUS上市 这样的大宏光仅售6.58-7.98万元 trevino 8 0 10-21 19:08
荣威RX5汽车音响升级超薄低音炮,音质动听!—海口源聚汽车生活馆 猫扑夜话 517 2 10-19 20:32
开着CS95智能出行是一种什么样的体验? trevino 64 1 10-19 20:32
荣威rx5 先生呀 149 3 10-19 20:32
第三排不再是摆设!全新CS95真七座16.59万元起售! 肥猪人 190 119 10-19 20:31
荣威RX5汽车音响改装——成都三禾麦田汽车音响 三禾麦田汽车音响 85 2 10-19 20:31
座椅换海绵问题 金庄王子 51 2 10-19 20:30
荣威汽车需要贴太阳膜吗?上海的夏天很热! 孤独的根号僖 125 1 06-19 15:21
有需要雨刷的吗?打算免费送一些 界无集 99 2 06-19 15:21
荣威350玻璃贴膜应该怎么贴?这么选就对了! 孤独的根号僖 71 1 06-19 15:20
好好开车的斑竹又被怼了 听风岁月 93 1 06-19 15:20
荣威的OBD接口在哪呢?求问大神 下辈子当熊猫匆 575 4 05-19 14:07
荣威RX5 荣威死粉 574 2 05-19 14:07
终于看到了这款梦寐以求的车,心情简直是不亚于看见偶像!(转载) 一路慢慢走来 159 1 05-19 14:06
求助!荣威Rx8的车主有没有,我想请教个问题 ty_139398112 604 2 05-19 14:06
【天涯头条.嘉宾直播】国产面包改简易房车贫游中国记~持续更新中 晚霞毓秀 277590 2731 10-18 09:19
荣威RX3油耗高吗,朋友们可以告诉我 2505540029 349 1 10-10 14:55
郑州荣威RX5改灯 升级海五透镜 照亮前行之路 15249679960 293 0 09-28 10:39
荣威的车友们有用过OBD盒子的吗? 就让网事随风疗 170 1 09-18 14:39
高德这样带路怕是要被交警抓起来吧 赤火炎焱恫 7232 7 09-18 14:38
成都车展可算是看爽了,美滋滋啊!!! 想忘记应33 361 5 09-18 14:37
750熄火了 马蹄子上的铁 103 1 09-18 14:37
近期想入手RX5铂金版 吕士杰 275 1 09-18 14:36
荣威车友建群 Lilyseagate 169 2 09-18 14:35
荣威350 自动豪华带天窗 车行小伙 164 2 09-18 14:35
每年都要扎一次,心疼 听风岁月 166 0 06-15 12:42
兄弟,下巴痛不 听风岁月 161 0 06-15 12:36
兄弟,PG痛不? 听风岁月 120 0 06-10 20:41
车,对一个男人来说那么重要吗意义在哪? 苏锦大大666 164 1 03-31 12:59
超低油耗的一款“神器”,你值得拥有 张馨艺_prevalen 405 4 03-31 12:58
智付 (Dinpay)是中国领先的独立第三方支付公司(转载) 刷锅ABC 34 1 03-31 12:57
小六子我的第二辆车已经到手,出来交下提车作业 小混侠瞿88 254 2 03-31 12:34
还在因为荣威ERX5的续航里程担忧吗? reconcil可爱小 459 0 09-14 14:49
荣威ERX5解决你的后顾之忧 deviatio心理咨 419 0 09-14 14:49
无论从什么角度欣赏我的i6都是那么的美! fake美好未来何 226 0 09-07 13:16
早买早享受,我买的i6可以提车了! 暗夜深狱暗夜深5 275 0 09-07 13:08
颜值控的代表——荣威i6 身体太绕卓00 283 0 09-07 13:01
我家的白色荣威i6,真是低调而奢华 墨小调贡_wring 443 0 09-07 12:50
试驾荣威i6,简单说下试驾感受 黄爱飞厍66 314 0 09-07 12:46
如果你以为i6只是漂亮又省油,那么你会失去很多乐趣 殇夏无伤11 217 1 09-07 12:42
荣威i6,你买车不得不看的品牌! forersrs 224 0 09-07 12:34
功能强大又省油的i6,内饰细节也非常用心 把酒封杯云nut 122 0 09-07 12:30
新到家的荣威i6拉出来晒晒 揮霍小advertis 178 0 09-06 17:11
居家实用型家轿——荣威i6 integritmlml 125 0 09-06 16:23
荣威i6,终于到手了! nickname做那最 194 0 09-05 14:14
和大家说说我用荣威i6的感受吧! discours虾嬷嬷 236 0 09-05 14:06
颜值控选它准没错 bugle阿迪安娜麻 43 0 09-04 16:12
荣威i6性价比是不是真有那么好? marshal柠檬淡茶 301 1 09-04 16:01
试驾君告诉你:荣威ERX5有多帅 evaporat我们好 193 0 09-03 12:01
新车异味问题,有朋友可以支个招吗? correlat未完待 75 0 09-03 11:43
话不多说,直接说一说荣威i6用车感受 marginaleses 134 0 09-03 11:27
国产车里,我觉得它还是不错的。 champion歌手潘 137 0 09-03 11:23
车展见i6,有点小惊喜~ 村落农instabil 96 2 08-31 18:10
轰轰烈烈的成都车展正在火热举行 uproar我是土豆 30 0 08-30 21:15
成都车展拉开帷幕,期待期待 木头娃娃柳77 16 0 08-30 19:55
人头攒动的成都车展啊! subscrip小佐 30 2 08-30 10:07
成都车展里面一些升级和改款车型也颇有看点 kineticshsh 34 0 08-30 08:22
朋友跳票,一人看展收获颇丰! consulxixi 21 0 08-29 20:22
来车展的目的只有一个,探访我心中的混动车 deposit红莲人形 35 0 08-29 19:30
居家代步小能手——荣威360用车作业 end土狗刀刀陆 113 0 08-29 18:07
【成都车展】靓车美女汇集地 潇湘枫雨inertia 66 2 08-29 14:34
成都车展荣威又给我们展示了什么新花样 quarterl一爱一 36 0 08-28 20:59
豪车美女,让你挪不开眼睛! 幻海雨夜衡66 121 3 08-26 22:11
美女如云,成都车展进行中 deviatio心理咨 86 2 08-26 22:11
又来车展了,听说还是规模最大的一次,个人看好改款950 燃瞿33 59 2 08-26 22:10
按耐不住提车的喜悦,说说我的小e migrate船过水无 48 0 08-26 17:40
寻找36D小姐姐,成都车展福利走一遭~ reconcil可爱小 339 0 08-26 16:48
成都车展,带你撩豪车看美女 西楼月如勾尤11 79 2 08-26 14:39
成都车展了,小伙伴们有去围观的没? 暗夜深狱暗夜深5 33 2 08-26 14:38
跟着我走,成都车展看个够 梦花飘雪77 34 2 08-26 14:36
除了新款950还有成都美食 远东二中怀33 45 2 08-26 14:34
i6的用车小感,油耗我还算满意 身体太绕卓00 102 0 08-24 20:41
全是缘分,喜提爱车 fake美好未来何 51 0 08-23 12:02
不得不说荣威i6真的值得购买 墨小调贡_wring 251 0 08-22 20:44
带着朋友自驾游去长白山咯 黄爱飞厍66 60 0 08-22 14:45
保养归来 遭遇倾盆大雨 殇夏无伤11 40 0 08-22 14:45
难得的聚会,深圳车友小聚马峦山 揮霍小advertis 55 0 08-21 21:38
今天看了一下i6觉得挺牛逼的 把酒封杯云nut 64 0 08-21 20:22
从你的世界路过,然后带上i6一起回家! quartz冯绒绒 32 0 08-21 20:10
荣威550 1.8L艾森ECU升级,感受中前段提速惊喜!(转载) kiji2015 73 0 08-21 17:32